Time;durP1;ratioP1;P1;durP2;ratioP2;P2;SDS_P1;SDS_P2;PMS_P1;PMS_P2;Temp;Humidity;BMP_temperature;BMP_pressure;BME280_temperature;BME280_humidity;BME280_pressure;Samples;Min_cycle;Max_cycle;Signal;HPM_P1;HPM_P2
2023/05/13 00:02:12;;;;;;;33.42;11.30;;;15.90;99.90;;;;;;6257963;22;20007;-94
2023/05/13 00:04:41;;;;;;;30.73;10.00;;;15.90;99.90;;;;;;6257522;22;20003;-93
2023/05/13 00:07:08;;;;;;;28.75;9.38;;;15.90;99.90;;;;;;6257262;22;20010;-93
2023/05/13 00:09:35;;;;;;;25.88;9.85;;;15.90;99.90;;;;;;6257819;22;20003;-95
2023/05/13 00:12:02;;;;;;;31.48;9.38;;;16.00;99.90;;;;;;6257474;22;20078;-92
2023/05/13 00:14:29;;;;;;;36.97;9.65;;;15.90;99.90;;;;;;6257770;22;20007;-93
2023/05/13 00:16:57;;;;;;;24.55;8.95;;;15.90;99.90;;;;;;6256980;22;20086;-94
2023/05/13 00:19:24;;;;;;;26.48;10.50;;;15.90;99.90;;;;;;6257086;22;20433;-93
2023/05/13 00:21:51;;;;;;;31.45;10.27;;;15.90;99.90;;;;;;6257444;22;20011;-92
2023/05/13 00:24:17;;;;;;;35.40;11.07;;;15.90;99.90;;;;;;6257239;22;20455;-93
2023/05/13 00:26:44;;;;;;;23.20;10.35;;;15.90;99.90;;;;;;6282874;22;20015;-93
2023/05/13 00:29:10;;;;;;;25.73;9.48;;;15.90;99.90;;;;;;6257461;22;20011;-94
2023/05/13 00:31:37;;;;;;;24.92;8.55;;;15.90;99.90;;;;;;6257679;22;20007;-93
2023/05/13 00:34:03;;;;;;;31.10;10.98;;;15.90;99.90;;;;;;6257258;22;20041;-93
2023/05/13 00:36:30;;;;;;;27.05;9.55;;;15.90;99.90;;;;;;6256960;22;20042;-93
2023/05/13 00:38:57;;;;;;;29.30;10.32;;;15.90;99.90;;;;;;6256984;22;20336;-93
2023/05/13 00:41:23;;;;;;;28.13;8.88;;;15.90;99.90;;;;;;6283603;22;20030;-92
2023/05/13 00:43:54;;;;;;;20.83;9.27;;;15.90;99.90;;;;;;6257167;22;20053;-94
2023/05/13 00:46:22;;;;;;;34.30;11.30;;;15.90;99.90;;;;;;6256996;22;20340;-94
2023/05/13 00:48:50;;;;;;;28.80;9.52;;;15.90;99.90;;;;;;6257284;22;20011;-94
2023/05/13 00:51:17;;;;;;;28.75;9.80;;;15.90;99.90;;;;;;6256697;22;20011;-93
2023/05/13 00:53:44;;;;;;;29.00;9.00;;;15.80;99.90;;;;;;6257199;22;20072;-94
2023/05/13 00:56:10;;;;;;;25.48;9.20;;;15.80;99.90;;;;;;6257273;22;20434;-92
2023/05/13 00:58:37;;;;;;;23.73;9.27;;;15.80;99.90;;;;;;6282554;22;20003;-93
2023/05/13 01:01:27;;;;;;;22.00;8.82;;;15.80;99.90;;;;;;6257440;22;20007;-93
2023/05/13 01:04:23;;;;;;;30.75;9.23;;;15.80;99.90;;;;;;6257325;22;20015;-93
2023/05/13 01:07:12;;;;;;;38.65;9.93;;;15.80;99.90;;;;;;6155581;23;20499;-91
2023/05/13 01:10:04;;;;;;;24.95;8.82;;;15.80;99.90;;;;;;6106435;23;20103;-92
2023/05/13 01:12:42;;;;;;;29.98;9.02;;;15.80;99.90;;;;;;6106634;23;20009;-94
2023/05/13 01:15:20;;;;;;;29.08;9.93;;;15.70;99.90;;;;;;6130794;23;20048;-93
2023/05/13 01:17:54;;;;;;;23.33;9.00;;;15.70;99.90;;;;;;6130823;23;20492;-94
2023/05/13 01:20:22;;;;;;;30.95;10.32;;;15.70;99.90;;;;;;6106645;23;20475;-94
2023/05/13 01:22:49;;;;;;;30.63;10.15;;;15.80;99.90;;;;;;6130825;23;20005;-94
2023/05/13 01:25:16;;;;;;;39.15;9.27;;;15.70;99.90;;;;;;6130835;23;20101;-95
2023/05/13 01:27:43;;;;;;;30.10;9.52;;;15.80;99.90;;;;;;6130678;23;20020;-93
2023/05/13 01:30:14;;;;;;;24.17;9.55;;;15.80;99.90;;;;;;6131175;23;20024;-94
2023/05/13 01:32:40;;;;;;;37.58;10.00;;;15.80;99.90;;;;;;6130786;23;20024;-92
2023/05/13 01:35:10;;;;;;;35.33;9.75;;;15.80;99.90;;;;;;6130233;23;20012;-92
2023/05/13 01:37:42;;;;;;;38.65;8.93;;;15.80;99.90;;;;;;6107257;23;20044;-92
2023/05/13 01:40:10;;;;;;;29.80;8.63;;;15.80;99.90;;;;;;6130807;23;20014;-92
2023/05/13 01:42:37;;;;;;;21.63;8.73;;;15.80;99.90;;;;;;6131568;22;20089;-92
2023/05/13 01:45:05;;;;;;;31.40;9.98;;;15.80;99.90;;;;;;6256313;22;20007;-94
2023/05/13 01:47:32;;;;;;;19.83;7.97;;;15.80;99.90;;;;;;6256336;22;20014;-93
2023/05/13 01:49:59;;;;;;;24.35;10.05;;;15.70;99.90;;;;;;6281978;22;20034;-92
2023/05/13 01:52:28;;;;;;;31.33;9.60;;;15.70;99.90;;;;;;6256646;22;20004;-95
2023/05/13 01:54:54;;;;;;;29.17;9.40;;;15.60;99.90;;;;;;6256546;22;20007;-93
2023/05/13 01:57:21;;;;;;;25.50;9.13;;;15.60;99.90;;;;;;6256607;22;20007;-93
2023/05/13 01:59:48;;;;;;;32.38;8.73;;;15.50;99.90;;;;;;6256554;22;20011;-93
2023/05/13 02:02:15;;;;;;;21.60;8.65;;;15.50;99.90;;;;;;6255932;22;20011;-93
2023/05/13 02:04:45;;;;;;;25.67;9.18;;;15.50;99.90;;;;;;6256494;22;20007;-93
2023/05/13 02:07:12;;;;;;;34.05;9.95;;;15.50;99.90;;;;;;6256640;22;20011;-95
2023/05/13 02:09:38;;;;;;;28.65;9.70;;;15.60;99.90;;;;;;6256490;22;20007;-92
2023/05/13 02:12:08;;;;;;;35.22;10.23;;;15.60;99.90;;;;;;6256905;22;20010;-93
2023/05/13 02:14:36;;;;;;;35.53;10.15;;;15.60;99.90;;;;;;6256433;22;20086;-93
2023/05/13 02:17:03;;;;;;;31.50;10.93;;;15.60;99.90;;;;;;6256363;22;20515;-92
2023/05/13 02:19:30;;;;;;;27.17;11.30;;;15.70;99.90;;;;;;6256466;22;20032;-92
2023/05/13 02:21:56;;;;;;;38.50;10.98;;;15.80;99.90;;;;;;6281930;22;20003;-93
2023/05/13 02:24:24;;;;;;;32.53;11.52;;;15.90;99.90;;;;;;6256127;22;20003;-94
2023/05/13 02:26:52;;;;;;;26.38;10.25;;;15.90;99.90;;;;;;6256123;22;20010;-92
2023/05/13 02:29:18;;;;;;;40.08;10.10;;;15.90;99.90;;;;;;6256060;22;20098;-92
2023/05/13 02:31:48;;;;;;;26.33;10.15;;;15.90;99.90;;;;;;6256256;22;20003;-91
2023/05/13 02:34:15;;;;;;;35.65;11.52;;;16.00;99.90;;;;;;6256696;22;20011;-93
2023/05/13 02:36:41;;;;;;;27.58;10.30;;;16.00;99.90;;;;;;6256124;22;20015;-93
2023/05/13 02:39:09;;;;;;;32.38;10.68;;;15.90;99.90;;;;;;6256631;22;20012;-94
2023/05/13 02:41:36;;;;;;;26.25;9.40;;;16.00;99.90;;;;;;6256154;22;20368;-93
2023/05/13 02:44:02;;;;;;;40.35;10.60;;;16.00;99.90;;;;;;6256577;22;20010;-93
2023/05/13 02:46:30;;;;;;;25.95;9.40;;;16.00;99.90;;;;;;6281889;22;20007;-95
2023/05/13 02:48:58;;;;;;;25.90;9.70;;;16.00;99.90;;;;;;6257539;22;20011;-92
2023/05/13 02:51:28;;;;;;;23.02;8.88;;;16.00;99.90;;;;;;6258728;22;20034;-93
2023/05/13 02:53:55;;;;;;;26.67;9.13;;;16.10;99.90;;;;;;6258114;22;20014;-93
2023/05/13 02:56:22;;;;;;;40.35;10.07;;;16.10;99.90;;;;;;6258158;22;20027;-94
2023/05/13 02:58:49;;;;;;;29.08;8.52;;;16.10;99.90;;;;;;6258282;22;20011;-92
2023/05/13 03:01:15;;;;;;;34.10;8.93;;;16.10;99.90;;;;;;6258490;22;20003;-96
2023/05/13 03:03:42;;;;;;;37.45;8.60;;;16.10;99.90;;;;;;6257870;22;20015;-93
2023/05/13 03:06:10;;;;;;;25.15;7.50;;;16.10;99.90;;;;;;6258316;22;20003;-93
2023/05/13 03:08:37;;;;;;;27.13;8.10;;;16.20;99.90;;;;;;6257840;22;20011;-92
2023/05/13 03:11:03;;;;;;;35.25;8.00;;;16.20;99.90;;;;;;6257931;22;20007;-93
2023/05/13 03:13:31;;;;;;;29.58;9.05;;;16.20;99.90;;;;;;6257983;22;20371;-93
2023/05/13 03:15:58;;;;;;;23.20;7.30;;;16.20;99.90;;;;;;6251660;22;20089;-94
2023/05/13 03:18:27;;;;;;;32.85;9.18;;;16.20;99.90;;;;;;6258467;22;20049;-94
2023/05/13 03:20:54;;;;;;;28.27;9.20;;;16.20;99.90;;;;;;6257709;22;20003;-95
2023/05/13 03:23:22;;;;;;;24.52;7.47;;;16.20;99.90;;;;;;6258352;22;20177;-92
2023/05/13 03:25:51;;;;;;;29.63;8.70;;;16.20;99.90;;;;;;6258064;22;20015;-95
2023/05/13 03:28:20;;;;;;;22.10;7.95;;;16.30;99.90;;;;;;6258215;22;20015;-96
2023/05/13 03:31:18;;;;;;;26.70;7.32;;;16.30;99.90;;;;;;6257426;22;20008;-93
2023/05/13 03:33:46;;;;;;;18.90;7.05;;;16.40;99.90;;;;;;6259826;22;20007;-94
2023/05/13 03:36:13;;;;;;;21.00;8.35;;;16.40;99.90;;;;;;6258629;22;20452;-93
2023/05/13 03:38:40;;;;;;;22.40;8.30;;;16.40;99.90;;;;;;6258359;22;20449;-95
2023/05/13 03:41:06;;;;;;;34.35;8.05;;;16.40;99.90;;;;;;6257802;22;20008;-94
2023/05/13 03:43:33;;;;;;;30.05;8.23;;;16.40;99.90;;;;;;6257875;22;20009;-93
2023/05/13 03:46:03;;;;;;;30.23;8.13;;;16.50;99.90;;;;;;6258168;22;20007;-94
2023/05/13 03:48:30;;;;;;;38.72;8.27;;;16.50;99.90;;;;;;6257475;22;20019;-93
2023/05/13 03:51:00;;;;;;;26.73;6.97;;;16.50;99.90;;;;;;6259143;22;20003;-94
2023/05/13 03:53:27;;;;;;;23.58;7.28;;;16.50;99.90;;;;;;6257362;22;20087;-92
2023/05/13 03:55:55;;;;;;;31.35;8.02;;;16.50;99.90;;;;;;6257674;22;20003;-94
2023/05/13 03:58:21;;;;;;;24.83;8.07;;;16.50;99.90;;;;;;6257384;22;20014;-95
2023/05/13 04:00:48;;;;;;;29.38;7.22;;;16.50;99.90;;;;;;6257952;22;20010;-94
2023/05/13 04:03:16;;;;;;;28.27;7.85;;;16.50;99.90;;;;;;6257586;22;20065;-94
2023/05/13 04:05:50;;;;;;;37.40;7.82;;;16.50;99.90;;;;;;6257172;22;20003;-93
2023/05/13 04:08:24;;;;;;;26.55;8.10;;;16.60;99.90;;;;;;6284176;22;20464;-93
2023/05/13 04:10:55;;;;;;;28.55;8.07;;;16.60;99.90;;;;;;6258253;22;20427;-94
2023/05/13 04:13:55;;;;;;;27.67;7.82;;;16.60;99.90;;;;;;6282669;22;20034;-94
2023/05/13 04:16:31;;;;;;;23.20;8.00;;;16.70;99.90;;;;;;6258024;22;20011;-94
2023/05/13 04:19:08;;;;;;;26.85;7.15;;;16.70;99.90;;;;;;6262886;22;20011;-95
2023/05/13 04:21:55;;;;;;;24.85;8.05;;;16.70;99.90;;;;;;6283497;22;20094;-95
2023/05/13 04:24:33;;;;;;;27.25;8.02;;;16.80;99.90;;;;;;6221040;23;20433;-93
2023/05/13 04:27:03;;;;;;;19.80;7.80;;;16.80;99.90;;;;;;6221023;23;20016;-92
2023/05/13 04:29:30;;;;;;;19.90;7.43;;;16.80;99.90;;;;;;6247115;23;20027;-95
2023/05/13 04:31:57;;;;;;;30.00;8.07;;;16.80;99.90;;;;;;6216422;23;20008;-93
2023/05/13 04:34:23;;;;;;;20.65;7.18;;;16.70;99.90;;;;;;6245538;22;20392;-93
2023/05/13 04:36:50;;;;;;;21.77;6.10;;;16.80;99.90;;;;;;6245541;23;20047;-94
2023/05/13 04:39:17;;;;;;;23.13;6.05;;;16.90;99.90;;;;;;6220356;23;20461;-94
2023/05/13 04:41:44;;;;;;;28.35;7.10;;;17.00;99.90;;;;;;6245292;23;20080;-92
2023/05/13 04:44:11;;;;;;;25.23;6.80;;;17.00;99.90;;;;;;6220506;23;20008;-93
2023/05/13 04:46:39;;;;;;;18.77;6.55;;;17.00;99.90;;;;;;6245714;23;20008;-93
2023/05/13 04:49:06;;;;;;;27.77;7.07;;;17.30;99.90;;;;;;6195335;23;20024;-92
2023/05/13 04:51:33;;;;;;;27.58;7.40;;;17.40;99.90;;;;;;6195488;23;20008;-93
2023/05/13 04:54:02;;;;;;;16.30;6.65;;;17.60;99.90;;;;;;6245991;22;20012;-92
2023/05/13 04:56:29;;;;;;;22.25;7.45;;;17.80;99.90;;;;;;6281701;22;20007;-92
2023/05/13 04:58:59;;;;;;;20.60;7.20;;;18.20;99.90;;;;;;6257198;22;20057;-94
2023/05/13 05:01:27;;;;;;;19.45;8.32;;;18.10;99.90;;;;;;6256968;22;20099;-94
2023/05/13 05:03:54;;;;;;;21.25;8.50;;;18.10;99.90;;;;;;6258512;22;20085;-92
2023/05/13 05:06:21;;;;;;;25.70;8.23;;;17.90;99.90;;;;;;6256949;22;20433;-93
2023/05/13 05:08:48;;;;;;;19.50;7.68;;;17.60;99.90;;;;;;6257242;22;20445;-94
2023/05/13 05:11:15;;;;;;;33.70;8.40;;;17.50;99.90;;;;;;6256226;22;20007;-93
2023/05/13 05:13:41;;;;;;;26.45;8.43;;;17.40;99.90;;;;;;6256825;22;20007;-91
2023/05/13 05:16:08;;;;;;;22.73;7.20;;;17.30;99.90;;;;;;6257081;22;20003;-92
2023/05/13 05:18:35;;;;;;;30.05;8.10;;;17.30;99.90;;;;;;6250978;22;20035;-93
2023/05/13 05:21:04;;;;;;;23.65;7.18;;;17.30;99.90;;;;;;6256972;22;20420;-91
2023/05/13 05:23:31;;;;;;;29.98;8.23;;;17.20;99.90;;;;;;6256528;22;20501;-92
2023/05/13 05:25:59;;;;;;;30.63;7.75;;;17.20;99.90;;;;;;6257177;22;20007;-94
2023/05/13 05:28:25;;;;;;;23.55;7.10;;;17.10;99.90;;;;;;6256314;22;20061;-92
2023/05/13 05:30:52;;;;;;;25.77;8.05;;;17.10;99.90;;;;;;6257145;22;20094;-93
2023/05/13 05:33:23;;;;;;;29.83;7.18;;;17.20;99.90;;;;;;6257377;22;20025;-94
2023/05/13 05:35:50;;;;;;;26.83;7.53;;;17.20;99.90;;;;;;6256278;22;20012;-94
2023/05/13 05:38:19;;;;;;;32.22;7.47;;;17.20;99.90;;;;;;6257565;22;20011;-93
2023/05/13 05:40:46;;;;;;;23.55;6.85;;;17.20;99.90;;;;;;6256630;22;20014;-94
2023/05/13 05:43:15;;;;;;;27.48;7.93;;;17.20;99.90;;;;;;6257941;22;20324;-92
2023/05/13 05:45:42;;;;;;;23.40;7.88;;;17.10;99.90;;;;;;6256790;22;20003;-93
2023/05/13 05:48:13;;;;;;;24.95;6.93;;;17.10;99.90;;;;;;6257246;22;20071;-93
2023/05/13 05:50:40;;;;;;;25.10;7.13;;;17.10;99.90;;;;;;6256538;22;20011;-95
2023/05/13 05:53:12;;;;;;;28.02;7.55;;;17.20;99.90;;;;;;6257259;22;20034;-93
2023/05/13 05:55:40;;;;;;;24.45;6.55;;;17.20;99.90;;;;;;6256405;22;20089;-93
2023/05/13 05:58:09;;;;;;;18.92;7.47;;;17.20;99.90;;;;;;6256634;22;20003;-92
2023/05/13 06:00:37;;;;;;;25.02;8.07;;;17.30;99.90;;;;;;6257117;22;20042;-93
2023/05/13 06:03:05;;;;;;;19.75;6.93;;;17.40;99.90;;;;;;6256745;22;20003;-94
2023/05/13 06:05:31;;;;;;;17.45;7.47;;;17.40;99.90;;;;;;6257090;22;20015;-93
2023/05/13 06:07:58;;;;;;;26.20;7.10;;;17.50;99.90;;;;;;6256400;22;20026;-94
2023/05/13 06:10:25;;;;;;;19.60;7.22;;;17.60;99.90;;;;;;6257174;22;20014;-93
2023/05/13 06:12:52;;;;;;;23.42;8.60;;;17.60;99.90;;;;;;6256746;22;20018;-93
2023/05/13 06:15:19;;;;;;;22.42;8.52;;;17.60;99.90;;;;;;6256717;22;20003;-93
2023/05/13 06:17:46;;;;;;;23.83;8.57;;;17.70;99.90;;;;;;6257354;22;20003;-93
2023/05/13 06:20:12;;;;;;;27.30;8.43;;;17.70;99.90;;;;;;6256664;22;20510;-93
2023/05/13 06:22:40;;;;;;;25.63;9.18;;;17.80;99.90;;;;;;6257922;22;19999;-93
2023/05/13 06:25:10;;;;;;;18.90;8.32;;;17.70;99.90;;;;;;6259869;22;20014;-93
2023/05/13 10:15:06;;;;;;;19.83;17.95;;;22.20;99.90;;;;;;6276388;22;20022;-91
2023/05/13 10:17:34;;;;;;;24.48;19.45;;;22.10;99.90;;;;;;6251162;22;20008;-92
2023/05/13 10:20:01;;;;;;;20.80;18.63;;;21.90;99.90;;;;;;6251121;22;20011;-93
2023/05/13 10:22:31;;;;;;;21.27;19.25;;;21.30;99.90;;;;;;6251211;22;20085;-91
2023/05/13 10:24:59;;;;;;;20.13;18.45;;;21.20;99.90;;;;;;6251318;22;20007;-92
2023/05/13 10:27:28;;;;;;;20.33;18.38;;;21.10;99.90;;;;;;6276691;22;20448;-91
2023/05/13 10:29:57;;;;;;;24.42;18.27;;;21.20;99.90;;;;;;6276567;22;20038;-90
2023/05/13 10:32:25;;;;;;;20.77;18.98;;;20.70;99.90;;;;;;6251657;22;20008;-91
2023/05/13 10:35:04;;;;;;;22.25;18.90;;;20.60;99.90;;;;;;6251120;22;20023;-91
2023/05/13 10:38:07;;;;;;;20.30;18.60;;;20.50;99.90;;;;;;6251035;22;20075;-93
2023/05/13 10:40:58;;;;;;;19.52;17.88;;;20.30;99.90;;;;;;6251257;22;20018;-92
2023/05/13 10:43:29;;;;;;;19.67;18.00;;;20.40;99.90;;;;;;6250158;22;20089;-92
2023/05/13 10:45:59;;;;;;;22.58;18.00;;;20.60;99.90;;;;;;6251077;22;20019;-92
2023/05/13 10:48:46;;;;;;;20.08;17.88;;;20.40;99.90;;;;;;6250917;22;20007;-93
2023/05/13 10:51:30;;;;;;;19.73;16.73;;;20.30;99.90;;;;;;6278823;22;20065;-92
2023/05/13 10:54:00;;;;;;;21.17;15.65;;;19.90;99.90;;;;;;6251923;22;20322;-92
2023/05/13 10:56:28;;;;;;;17.52;14.98;;;19.90;99.90;;;;;;6252137;22;20019;-93
2023/05/13 10:59:03;;;;;;;15.13;13.52;;;19.70;99.90;;;;;;6251070;22;20015;-93
2023/05/13 11:01:34;;;;;;;14.10;12.10;;;19.60;99.90;;;;;;6276156;22;20023;-91
2023/05/13 11:04:02;;;;;;;14.43;11.25;;;19.60;99.90;;;;;;6276491;22;20010;-93
2023/05/13 11:06:29;;;;;;;19.23;9.77;;;19.30;99.90;;;;;;6276234;22;20004;-91
2023/05/13 11:08:56;;;;;;;16.38;9.50;;;19.00;99.90;;;;;;6277062;22;20026;-91
2023/05/13 11:11:31;;;;;;;13.82;9.95;;;18.60;99.90;;;;;;6227921;22;20004;-94
2023/05/13 11:13:58;;;;;;;18.42;9.18;;;18.30;99.90;;;;;;6268678;22;20031;-93
2023/05/13 11:16:31;;;;;;;14.35;9.25;;;18.30;99.90;;;;;;6229884;22;20047;-93
2023/05/13 11:19:08;;;;;;;11.55;8.23;;;18.00;99.90;;;;;;6261750;22;20054;-94
2023/05/13 11:21:38;;;;;;;16.75;7.30;;;18.00;99.90;;;;;;6252832;22;20008;-92
2023/05/13 11:24:08;;;;;;;11.80;7.15;;;18.10;99.90;;;;;;6279607;22;20030;-91
2023/05/13 11:27:02;;;;;;;9.98;7.05;;;18.00;99.90;;;;;;6283480;22;20011;-94
2023/05/13 11:29:35;;;;;;;12.05;6.50;;;18.10;99.90;;;;;;6280939;22;20016;-90
2023/05/13 11:32:10;;;;;;;19.42;6.40;;;18.10;99.90;;;;;;6278452;22;20008;-92
2023/05/13 11:34:37;;;;;;;17.48;6.63;;;18.00;99.90;;;;;;6254406;22;20019;-94
2023/05/13 11:37:11;;;;;;;16.98;6.32;;;18.00;99.90;;;;;;6256813;22;20319;-94
2023/05/13 11:39:40;;;;;;;12.50;5.70;;;18.10;99.90;;;;;;6282484;22;20014;-92
2023/05/13 11:42:10;;;;;;;12.80;6.28;;;18.20;99.90;;;;;;6282166;22;20042;-91
2023/05/13 11:44:45;;;;;;;15.20;6.63;;;18.10;99.90;;;;;;6278780;22;20031;-92
2023/05/13 11:47:12;;;;;;;15.07;6.65;;;18.10;99.90;;;;;;6254060;22;20079;-91
2023/05/13 11:49:47;;;;;;;14.65;6.45;;;18.10;99.90;;;;;;6253205;22;20016;-92
2023/05/13 11:52:19;;;;;;;14.40;6.32;;;17.90;99.90;;;;;;6255529;22;20027;-90
2023/05/13 11:54:49;;;;;;;12.57;5.90;;;17.80;99.90;;;;;;6278527;22;20138;-91
2023/05/13 11:57:21;;;;;;;16.42;5.75;;;17.80;99.90;;;;;;6228029;22;20008;-92
2023/05/13 11:59:58;;;;;;;17.08;6.32;;;17.80;99.90;;;;;;6252923;22;20015;-93
2023/05/13 12:02:39;;;;;;;14.60;6.05;;;17.70;99.90;;;;;;6235573;22;20068;-94
2023/05/13 12:06:20;;;;;;;20.30;6.78;;;17.70;99.90;;;;;;6259759;22;20030;-94
2023/05/13 12:09:03;;;;;;;14.52;6.07;;;17.80;99.90;;;;;;6171562;22;20108;-93
2023/05/13 12:16:02;;;;;;;13.18;7.05;;;18.10;99.90;;;;;;6066408;23;20487;-93
2023/05/13 12:18:29;;;;;;;12.43;6.90;;;18.00;99.90;;;;;;6016450;23;20027;-94
2023/05/13 12:21:01;;;;;;;11.52;7.03;;;18.00;99.90;;;;;;5993005;23;20084;-95
2023/05/13 12:33:03;;;;;;;13.63;10.20;;;18.40;99.90;;;;;;6243711;23;20028;-93
2023/05/13 12:36:13;;;;;;;15.32;11.40;;;18.50;99.90;;;;;;6206701;23;20413;-93
2023/05/13 12:38:56;;;;;;;13.90;12.63;;;18.70;99.90;;;;;;6196859;23;20054;-93
2023/05/13 13:04:35;;;;;;;14.80;13.32;;;19.10;99.90;;;;;;6309887;22;20050;-93
2023/05/13 13:07:20;;;;;;;18.35;13.75;;;19.30;99.90;;;;;;6257338;22;20007;-93
2023/05/13 13:09:47;;;;;;;15.98;13.65;;;19.30;99.90;;;;;;6256447;22;20019;-91
2023/05/13 13:12:13;;;;;;;15.57;14.20;;;19.30;99.90;;;;;;6258217;22;20340;-93
2023/05/13 18:35:22;;;;;;;21.00;6.85;;;16.70;99.90;;;;;;6300465;22;21209;-94
2023/05/13 19:11:46;;;;;;;22.38;8.32;;;16.80;99.90;;;;;;6305145;22;20019;-94
2023/05/13 19:26:45;;;;;;;29.35;11.10;;;16.90;99.90;;;;;;6324355;22;20100;-93
2023/05/13 19:31:56;;;;;;;32.60;8.63;;;16.80;99.90;;;;;;6302528;22;20023;-93
2023/05/13 20:07:14;;;;;;;22.35;10.10;;;16.70;99.90;;;;;;6295684;22;20057;31
2023/05/13 22:25:52;;;;;;;26.85;8.98;;;16.50;99.90;;;;;;6307218;22;20034;31
2023/05/13 23:33:06;;;;;;;30.38;9.93;;;16.60;99.90;;;;;;6305313;22;20065;-90
2023/05/13 23:58:34;;;;;;;;;;;;;;;;;;;;;
